Airfield :
LOGIN :

Register | Disclaimer

   EN    FR    IT 

 










Legend :    VFR   Marginal VFR   IFR   Intensive IFR   Very Intensive IFR
Visi :
Ceiling :
>= 8 km
>= 3000ft
5 to 8 km
1000 to 3000 ft
1500m to 5 km
500 to 1000 ft
800 to 1500m
200 to 500 ft
< 800m
< 200 ft
Symbols :   Thunderstorms  Fog  Heavy snow  Heavy precipitations  Wind > 20 kt
SIGMETs :     Misc.  Thunderstorms  Icing  Turbulence  Mountain Waves  Volcanic Ashes







- Airport Elevation : 39 ft


ETNH - Hohn AB

CURRENT METAR :
  • 300020Z 10001KT 0300 FG VV000 08/07 Q1023 RED

EXPIRED METARs :
  • 292320Z 29001KT 0500 FG BKN003 08/07 Q1023 RED
  • 292220Z 24005KT 2500 BR BKN003 08/07 Q1023 YLO

TAF AMD TAF ETNH
Valid from the 30 at 00:00 until the 30 at 11:00 UTC


300010Z 3000/3011 22008KT 3000 BR BKN003
TEMPO 3000/3008 VRB03KT 0500 FG BKN001
TEMPO 3008/3010 19004KT 2000 -DZ BKN002 BY ETGL
No reported NOTAMs for that airfield.



MET'MAP, your aeronautical weather chart ! - Copyright ORBIFLY December 2007 - Disclaimer

ORBIFLY MET'MAP TEAM :

Programming & Development : Alexandra Zaïnal
Concept & Development : Baudouin d'Aumeries
Co-Development & Prog : Marc-Olivier Méhu
Technical & hardware support : Manuel Goepfert

Contact : metmap@orbifly.com




SOURCES & CREDITS :

   NOAA